Latest Coastal Weather Observations for Mackay

IDQ60701

Issued at 8:42 am EST Sunday 26 February 2017 (issued every 10 minutes, with the page automatically refreshed every 10 minutes)

About coastal observations | Map of coastal stations | Coastal observations for QLD | Marine services | Other Formats
Station Details ID: 033119 Name: MACKAY M.O Lat: -21.12 Lon: 149.22 Height: 30.26 m
Data from the previous 72 hours. | See also: Recent months at Mackay
Date/Time
EST
Temp
°C
Wind Pressure Rain since
9am
mm
Weather Cloud Vis
km
Sea
Height
m
Swell
Dir  Spd
kts
Gust
kts
hPa Trend Height
m
Period
s
Dir
26/08:30am 28.3 SE 10 15 1012.1 - 0.0 - Partly cloudy - - - - -
26/08:00am 28.6 SE 9 14 1011.8 - 0.0 - - - - - - -
26/07:30am 28.2 SE 9 14 1011.6 - 0.0 - - - - - - -
26/07:00am 27.8 ESE 9 16 1011.2 - 0.0 - Partly cloudy - - - - -
26/06:30am 27.2 ESE 8 15 1010.9 - 0.0 - Partly cloudy - - - - -
26/06:00am 27.1 SE 9 16 1010.7 R 0.0 - Mostly clear - - - - -
26/05:30am 27.2 ESE 8 14 1010.5 - 0.0 - Partly cloudy - - - - -
26/05:00am 27.3 ESE 7 11 1010.1 - 0.0 - Partly cloudy - - - - -
26/04:30am 27.2 E 9 14 1009.9 - 0.0 - Partly cloudy - - - - -
26/04:00am 27.0 ESE 8 15 1009.7 - 0.0 - Partly cloudy - - - - -
26/03:30am 27.0 ESE 8 12 1009.8 - 0.0 - Partly cloudy - - - - -
26/03:00am 27.2 ESE 9 13 1010.0 - 0.0 - Partly cloudy - - - - -
26/02:30am 27.2 ESE 8 14 1010.1 - 0.0 - Partly cloudy - - - - -
26/02:00am 27.3 ESE 9 16 1010.2 - 0.0 - Partly cloudy - - - - -
26/01:30am 27.3 ESE 9 16 1010.6 - 0.0 - Partly cloudy - - - - -
26/01:00am 27.3 ESE 8 15 1010.7 - 0.0 - Partly cloudy - - - - -
26/12:30am 27.4 ESE 8 14 1011.1 - 0.0 - Partly cloudy - - - - -
26/12:00am 27.5 ESE 10 16 1011.4 - 0.0 - Mostly cloudy - - - - -
 
Date/Time
EST
Temp
°C
Wind Pressure Rain since
9am
mm
Weather Cloud Vis
km
Sea
Height
m
Swell
Dir  Spd
kts
Gust
kts
hPa Trend Height
m
Period
s
Dir
25/11:30pm 27.5 ESE 9 14 1011.5 - 0.0 - Partly cloudy - - - - -
25/11:00pm 27.6 ESE 9 16 1011.6 - 0.0 - Partly cloudy - - - - -
25/10:30pm 27.6 E 9 14 1011.6 - 0.0 - Partly cloudy - - - - -
25/10:00pm 27.7 ESE 9 14 1011.6 - 0.0 - Partly cloudy - - - - -
25/09:30pm 27.6 ESE 9 16 1011.5 - 0.0 - Partly cloudy - - - - -
25/09:00pm 27.6 SE 9 15 1011.5 F 0.0 - Mostly clear - - - - -
25/08:30pm 27.6 SE 9 14 1011.5 - 0.0 - Partly cloudy - - - - -
25/08:00pm 27.8 ESE 8 14 1011.4 - 0.0 - Partly cloudy - - - - -
25/07:30pm 27.5 SE 9 14 1011.2 - 0.0 - Partly cloudy - - - - -
25/07:00pm 27.3 SE 8 14 1010.9 - 0.0 - Partly cloudy - - - - -
25/06:30pm 27.5 ESE 8 15 1010.8 - 0.0 - - - - - - -
25/06:00pm 27.8 SE 9 14 1010.6 R 0.0 - Partly cloudy - - - - -
25/05:30pm 28.0 SE 8 13 1010.4 - 0.0 - Partly cloudy - - - - -
25/05:00pm 28.1 SE 9 16 1010.4 - 0.0 - Partly cloudy - - - - -
25/04:30pm 29.2 SE 9 15 1010.2 - 0.0 - Partly cloudy - - - - -
25/04:00pm 29.1 SE 9 17 1010.2 - 0.0 - - - - - - -
25/03:30pm 29.3 SE 11 16 1010.2 - 0.0 - - - - - - -
25/03:00pm 29.6 SE 10 16 1010.3 F 0.0 - Partly cloudy - - - - -
25/02:30pm 29.6 SE 10 17 1010.5 - 0.0 - - - - - - -
25/02:00pm 29.3 SSE 10 18 1010.9 - 0.0 - - - - - - -
25/01:30pm 30.0 SSE 10 16 1011.4 - 0.0 - - - - - - -
25/01:00pm 29.1 SSE 11 17 1011.6 - 0.0 - Partly cloudy - - - - -
25/12:30pm 29.8 SSE 9 16 1012.0 - 0.0 - - - - - - -
25/12:00pm 29.9 SSE 10 16 1012.3 F 0.0 - Mostly clear - - - - -
25/11:30am 29.9 SE 10 16 1012.7 - 0.0 - - - - - - -
25/11:00am 29.6 SE 9 17 1013.0 - 0.0 - Partly cloudy - - - - -
25/10:30am 29.8 SE 9 15 1013.1 - 0.0 - - - - - - -
25/10:00am 29.4 SE 10 16 1013.2 - 0.0 - Partly cloudy - - - - -
25/09:30am 29.8 SE 9 16 1013.3 - 0.0 - Partly cloudy - - - - -
25/09:00am 29.1 SE 9 13 1013.2 F 1.2 Recent precip. Mostly clear - - - - -
25/08:30am 28.8 SE 8 13 1013.2 - 1.0 - Partly cloudy - - - - -
25/08:00am 29.0 ESE 7 13 1013.1 - 1.0 - Partly cloudy - - - - -
25/07:30am 28.5 ESE 6 11 1012.8 - 1.0 - Partly cloudy - - - - -
25/07:00am 28.0 SE 6 9 1012.5 - 1.0 - - - - - - -
25/06:30am 27.1 ESE 7 11 1012.2 - 1.0 - Partly cloudy - - - - -
25/06:00am 27.3 ESE 7 12 1011.9 F 1.0 - Mostly cloudy - - - - -
25/05:30am 27.0 E 8 13 1011.6 - 1.0 - Partly cloudy - - - - -
25/05:00am 27.2 E 7 11 1011.6 - 1.0 - Partly cloudy - - - - -
25/04:30am 27.1 E 9 13 1011.5 - 1.0 - Partly cloudy - - - - -
25/04:00am 27.3 ESE 7 11 1011.5 - 1.0 - Partly cloudy - - - - -
25/03:30am 27.2 E 8 13 1011.6 - 1.0 - Partly cloudy - - - - -
25/03:00am 27.2 E 8 12 1011.7 - 1.0 - Partly cloudy - - - - -
25/02:30am 27.1 E 7 11 1011.7 - 1.0 - Partly cloudy - - - - -
25/02:00am 26.7 ESE 6 9 1011.8 - 1.0 - Partly cloudy - - - - -
25/01:30am 26.8 E 8 13 1012.0 - 1.0 - Partly cloudy - - - - -
25/01:00am 26.2 ENE 8 13 1012.1 - 1.0 - Partly cloudy - - - - -
25/12:30am 27.4 E 7 11 1012.5 - 0.8 - Partly cloudy - - - - -
25/12:00am 27.4 E 8 11 1012.6 - 0.8 - Partly cloudy - - - - -
 
Date/Time
EST
Temp
°C
Wind Pressure Rain since
9am
mm
Weather Cloud Vis
km
Sea
Height
m
Swell
Dir  Spd
kts
Gust
kts
hPa Trend Height
m
Period
s
Dir
24/11:30pm 27.5 E 8 11 1013.0 - 0.8 - Partly cloudy - - - - -
24/11:00pm 27.5 ESE 7 11 1013.2 - 0.8 - Partly cloudy - - - - -
24/10:30pm 27.6 E 9 12 1013.3 - 0.8 - Partly cloudy - - - - -
24/10:00pm 27.6 ESE 8 13 1013.2 - 0.8 - Partly cloudy - - - - -
24/09:30pm 27.6 ESE 7 12 1013.3 - 0.8 - Partly cloudy - - - - -
24/09:00pm 27.8 ESE 7 13 1013.1 F 0.8 - Mostly clear - - - - -
24/08:30pm 27.4 ESE 7 11 1012.9 - 0.8 - Partly cloudy - - - - -
24/08:00pm 27.3 E 7 11 1012.8 - 0.8 - Partly cloudy - - - - -
24/07:30pm 27.2 ESE 6 9 1012.6 - 0.8 - - - - - - -
24/07:00pm 26.7 ESE 6 11 1012.5 - 0.8 - Partly cloudy - - - - -
24/06:30pm 26.2 ESE 6 9 1012.6 - 0.8 - Partly cloudy - - - - -
24/06:00pm 26.2 ESE 9 15 1012.4 R 0.8 - Cloudy - - - - -
24/05:30pm 26.5 E 8 12 1012.2 - 0.8 - Partly cloudy - - - - -
24/05:00pm 26.7 E 6 10 1012.1 - 0.8 - Partly cloudy - - - - -
24/04:30pm 27.1 E 12 18 1012.1 - 0.0 - Partly cloudy - - - - -
24/04:00pm 28.4 SE 8 12 1012.0 - 0.0 - Partly cloudy - - - - -
24/03:30pm 29.4 SE 8 14 1011.9 - 0.0 - Partly cloudy - - - - -
24/03:00pm 29.5 SE 8 13 1012.0 F 0.0 - Mostly clear - - - - -
24/02:30pm 29.2 SE 11 15 1012.3 - 0.0 - Partly cloudy - - - - -
24/02:00pm 29.5 SSE 11 16 1012.5 - 0.0 - Partly cloudy - - - - -
24/01:30pm 29.6 SSE 11 16 1012.9 - 0.0 - - - - - - -
24/01:00pm 29.3 S 15 21 1013.1 - 0.0 - Partly cloudy - - - - -
24/12:30pm 28.9 SSE 14 22 1013.5 - 0.0 - Partly cloudy - - - - -
24/12:02pm 29.1 SSE 15 25 1013.8 - 0.0 - Partly cloudy - - - - -
24/12:00pm 29.1 SSE 14 22 1013.8 R 0.0 - Partly cloudy - - - - -
24/11:30am 28.0 SSE 15 21 1014.1 - 0.0 - Partly cloudy - - - - -
24/11:00am 28.0 SSE 13 21 1014.5 - 0.0 - Partly cloudy - - - - -
24/10:30am 27.9 SSE 13 20 1014.6 - 0.0 - Partly cloudy - - - - -
24/10:00am 26.3 SE 12 18 1014.6 - 0.0 - Partly cloudy - - - - -
24/09:30am 28.1 SSE 14 21 1014.3 - 0.0 - Partly cloudy - - - - -
24/09:00am 27.8 SSE 13 19 1014.1 F 1.2 - Cloudy - - - - -
24/08:30am 26.9 S 12 17 1014.0 - 1.2 - Partly cloudy - - - - -
24/08:00am 26.6 S 11 17 1014.0 - 1.2 - Partly cloudy - - - - -
24/07:30am 26.2 S 12 17 1013.9 - 1.2 - Partly cloudy - - - - -
24/07:00am 25.2 S 9 14 1013.6 - 1.2 - Partly cloudy - - - - -
24/06:30am 25.1 S 9 13 1013.6 - 1.2 - Partly cloudy - - - - -
24/06:00am 25.1 S 9 14 1013.5 F 1.2 Recent precip. Mostly cloudy - - - - -
24/05:30am 25.0 S 10 14 1013.2 - 1.2 - Partly cloudy - - - - -
24/05:00am 25.0 S 9 14 1013.1 - 1.0 - Partly cloudy - - - - -
24/04:30am 26.4 S 9 14 1013.0 - 0.2 - Partly cloudy - - - - -
24/04:00am 27.5 SSE 11 19 1013.0 - 0.2 - Partly cloudy - - - - -
24/03:30am 27.5 SSE 9 15 1012.9 - 0.2 - Partly cloudy - - - - -
24/03:00am 27.4 SSE 10 17 1013.0 - 0.2 - Cloudy - - - - -
24/02:30am 27.4 SE 9 14 1013.3 - 0.2 - Partly cloudy - - - - -
24/02:00am 27.1 SE 7 11 1013.6 - 0.2 - Partly cloudy - - - - -
24/01:30am 27.5 ESE 6 11 1013.9 - 0.2 - Partly cloudy - - - - -
24/01:00am 27.4 SE 8 13 1014.2 - 0.2 - - - - - - -
24/12:30am 27.4 SSE 8 13 1014.5 - 0.2 - Partly cloudy - - - - -
24/12:00am 27.5 SE 8 11 1014.8 - 0.2 - Partly cloudy - - - - -
 
Date/Time
EST
Temp
°C
Wind Pressure Rain since
9am
mm
Weather Cloud Vis
km
Sea
Height
m
Swell
Dir  Spd
kts
Gust
kts
hPa Trend Height
m
Period
s
Dir
23/11:30pm 27.5 SE 7 13 1014.9 - 0.2 - - - - - - -
23/11:00pm 27.6 SE 7 13 1014.8 - 0.2 - Partly cloudy - - - - -
23/10:30pm 27.5 ESE 7 12 1014.8 - 0.2 - Partly cloudy - - - - -
23/10:00pm 27.6 ESE 7 14 1014.7 - 0.2 - - - - - - -
23/09:30pm 27.7 ESE 8 15 1014.8 - 0.2 - Partly cloudy - - - - -
23/09:00pm 27.7 ESE 10 15 1014.6 S 0.2 - Cloudy - - - - -
23/08:30pm 27.9 ESE 9 16 1014.5 - 0.2 - Partly cloudy - - - - -
23/08:00pm 27.8 ESE 9 15 1014.2 - 0.2 - Partly cloudy - - - - -
23/07:30pm 27.9 ESE 8 15 1013.8 - 0.2 - Partly cloudy - - - - -
23/07:00pm 27.9 ESE 8 13 1013.5 - 0.2 - - - - - - -
23/06:30pm 27.9 ESE 8 13 1013.3 - 0.2 - - - - - - -
23/06:00pm 28.2 ESE 8 13 1013.1 R 0.2 - - - - - - -
23/05:30pm 28.7 ESE 7 12 1013.0 - 0.2 - Partly cloudy - - - - -
23/05:00pm 28.9 SE 8 13 1012.8 - 0.2 - - - - - - -
23/04:30pm 29.3 SE 10 16 1012.7 - 0.2 - Partly cloudy - - - - -
23/04:00pm 29.5 SSE 11 17 1012.4 - 0.2 - - - - - - -
23/03:30pm 29.1 SE 10 17 1012.4 - 0.2 - Partly cloudy - - - - -
23/03:00pm 29.7 SE 10 19 1012.8 F 0.2 - Mostly cloudy - - - - -
23/02:30pm 29.8 SSE 11 17 1013.3 - 0.2 - Partly cloudy - - - - -
23/02:00pm 29.6 SSE 13 18 1013.6 - 0.2 - Partly cloudy - - - - -
23/01:30pm 29.8 SSE 12 21 1013.9 - 0.2 - Partly cloudy - - - - -
23/01:00pm 29.5 SSE 13 23 1013.8 - 0.2 - Partly cloudy - - - - -
23/12:30pm 29.5 SSE 14 22 1014.1 - 0.2 - Partly cloudy - - - - -
23/12:00pm 29.8 SSE 13 21 1014.4 F 0.2 - Mostly cloudy - - - - -
23/11:30am 29.1 SSE 15 22 1014.7 - 0.2 - Partly cloudy - - - - -
23/11:00am 29.4 SSE 14 22 1014.9 - 0.2 - Partly cloudy - - - - -
23/10:30am 28.7 SSE 13 22 1015.1 - 0.2 - Partly cloudy - - - - -
23/10:00am 28.5 SSE 13 19 1015.4 - 0.2 - Partly cloudy - - - - -
23/09:30am 28.1 SSE 12 18 1015.5 - 0.2 - Partly cloudy - - - - -
23/09:00am 27.9 S 11 17 1015.5 R 1.0 - Cloudy - - - - -

Other Formats:

Comma delimited format used in spreadsheet applications
http://www.bom.gov.au/fwo/IDQ60701/IDQ60701.94367.axf

JavaScript Object Notation format (JSON) in row-major order
http://www.bom.gov.au/fwo/IDQ60701/IDQ60701.94367.json